sensor_id;sensor_type;location;lat;lon;timestamp;pressure;altitude;pressure_sealevel;temperature
53667;BMP280;39568;51.026;5.468;2023-03-05T00:00:00;101386.06;;;5.42
53667;BMP280;39568;51.026;5.468;2023-03-05T00:02:27;101388.94;;;5.35
53667;BMP280;39568;51.026;5.468;2023-03-05T00:04:54;101389.47;;;5.30
53667;BMP280;39568;51.026;5.468;2023-03-05T00:07:20;101380.66;;;5.24
53667;BMP280;39568;51.026;5.468;2023-03-05T00:09:48;101378.88;;;5.21
53667;BMP280;39568;51.026;5.468;2023-03-05T00:12:15;101382.56;;;5.23
53667;BMP280;39568;51.026;5.468;2023-03-05T00:14:42;101382.44;;;5.14
53667;BMP280;39568;51.026;5.468;2023-03-05T00:17:09;101384.44;;;5.23
53667;BMP280;39568;51.026;5.468;2023-03-05T00:19:35;101370.94;;;5.21
53667;BMP280;39568;51.026;5.468;2023-03-05T00:22:02;101371.13;;;5.26
53667;BMP280;39568;51.026;5.468;2023-03-05T00:24:29;101359.06;;;5.25
53667;BMP280;39568;51.026;5.468;2023-03-05T00:26:57;101367.00;;;5.25
53667;BMP280;39568;51.026;5.468;2023-03-05T00:29:23;101359.81;;;5.26
53667;BMP280;39568;51.026;5.468;2023-03-05T00:31:52;101365.34;;;5.19
53667;BMP280;39568;51.026;5.468;2023-03-05T00:34:19;101364.72;;;5.15
53667;BMP280;39568;51.026;5.468;2023-03-05T00:36:47;101360.84;;;5.07
53667;BMP280;39568;51.026;5.468;2023-03-05T00:39:14;101363.50;;;5.07
53667;BMP280;39568;51.026;5.468;2023-03-05T00:41:42;101359.16;;;5.13
53667;BMP280;39568;51.026;5.468;2023-03-05T00:44:10;101355.31;;;5.14
53667;BMP280;39568;51.026;5.468;2023-03-05T00:46:37;101347.22;;;5.21
53667;BMP280;39568;51.026;5.468;2023-03-05T00:49:05;101344.13;;;5.22
53667;BMP280;39568;51.026;5.468;2023-03-05T00:51:32;101350.38;;;5.16
53667;BMP280;39568;51.026;5.468;2023-03-05T00:53:58;101345.31;;;5.09
53667;BMP280;39568;51.026;5.468;2023-03-05T00:56:25;101344.41;;;5.02
53667;BMP280;39568;51.026;5.468;2023-03-05T00:58:52;101340.09;;;4.96
53667;BMP280;39568;51.026;5.468;2023-03-05T01:01:20;101331.00;;;4.97
53667;BMP280;39568;51.026;5.468;2023-03-05T01:03:47;101329.13;;;4.97
53667;BMP280;39568;51.026;5.468;2023-03-05T01:06:14;101335.75;;;5.02
53667;BMP280;39568;51.026;5.468;2023-03-05T01:08:42;101336.91;;;5.01
53667;BMP280;39568;51.026;5.468;2023-03-05T01:11:09;101330.38;;;4.93
53667;BMP280;39568;51.026;5.468;2023-03-05T01:13:36;101326.91;;;4.96
53667;BMP280;39568;51.026;5.468;2023-03-05T01:16:03;101314.44;;;4.96
53667;BMP280;39568;51.026;5.468;2023-03-05T01:18:32;101321.00;;;5.04
53667;BMP280;39568;51.026;5.468;2023-03-05T01:20:59;101312.44;;;5.00
53667;BMP280;39568;51.026;5.468;2023-03-05T01:23:25;101317.59;;;5.04
53667;BMP280;39568;51.026;5.468;2023-03-05T01:25:53;101314.97;;;5.04
53667;BMP280;39568;51.026;5.468;2023-03-05T01:28:20;101304.19;;;4.98
53667;BMP280;39568;51.026;5.468;2023-03-05T01:30:47;101301.59;;;4.86
53667;BMP280;39568;51.026;5.468;2023-03-05T01:33:14;101300.25;;;4.81
53667;BMP280;39568;51.026;5.468;2023-03-05T01:35:45;101291.78;;;4.86
53667;BMP280;39568;51.026;5.468;2023-03-05T01:38:11;101294.75;;;4.88
53667;BMP280;39568;51.026;5.468;2023-03-05T01:40:38;101289.34;;;4.92
53667;BMP280;39568;51.026;5.468;2023-03-05T01:43:20;101285.84;;;4.95
53667;BMP280;39568;51.026;5.468;2023-03-05T01:49:12;101275.88;;;4.90
53667;BMP280;39568;51.026;5.468;2023-03-05T01:51:49;101270.94;;;4.79
53667;BMP280;39568;51.026;5.468;2023-03-05T01:54:18;101269.16;;;4.76
53667;BMP280;39568;51.026;5.468;2023-03-05T01:56:48;101264.50;;;4.80
53667;BMP280;39568;51.026;5.468;2023-03-05T01:59:15;101268.00;;;4.77
53667;BMP280;39568;51.026;5.468;2023-03-05T02:01:45;101267.81;;;4.72
53667;BMP280;39568;51.026;5.468;2023-03-05T02:04:15;101259.16;;;4.71
53667;BMP280;39568;51.026;5.468;2023-03-05T02:06:45;101258.97;;;4.66
53667;BMP280;39568;51.026;5.468;2023-03-05T02:09:12;101263.69;;;4.71
53667;BMP280;39568;51.026;5.468;2023-03-05T02:11:39;101250.38;;;4.74
53667;BMP280;39568;51.026;5.468;2023-03-05T02:14:07;101242.59;;;4.71
53667;BMP280;39568;51.026;5.468;2023-03-05T02:16:34;101242.72;;;4.67
53667;BMP280;39568;51.026;5.468;2023-03-05T02:19:03;101234.78;;;4.67
53667;BMP280;39568;51.026;5.468;2023-03-05T02:21:37;101234.38;;;4.69
53667;BMP280;39568;51.026;5.468;2023-03-05T02:24:04;101241.75;;;4.74
53667;BMP280;39568;51.026;5.468;2023-03-05T02:26:31;101239.53;;;4.72
53667;BMP280;39568;51.026;5.468;2023-03-05T02:29:00;101232.78;;;4.71
53667;BMP280;39568;51.026;5.468;2023-03-05T02:31:28;101228.25;;;4.72
53667;BMP280;39568;51.026;5.468;2023-03-05T02:33:55;101227.38;;;4.75
53667;BMP280;39568;51.026;5.468;2023-03-05T02:36:22;101231.19;;;4.74
53667;BMP280;39568;51.026;5.468;2023-03-05T02:38:50;101228.13;;;4.75
53667;BMP280;39568;51.026;5.468;2023-03-05T02:41:18;101222.84;;;4.75
53667;BMP280;39568;51.026;5.468;2023-03-05T02:43:45;101221.38;;;4.74
53667;BMP280;39568;51.026;5.468;2023-03-05T02:46:11;101222.09;;;4.75
53667;BMP280;39568;51.026;5.468;2023-03-05T02:48:38;101223.00;;;4.72
53667;BMP280;39568;51.026;5.468;2023-03-05T02:51:06;101219.16;;;4.73
53667;BMP280;39568;51.026;5.468;2023-03-05T02:53:32;101216.97;;;4.71
53667;BMP280;39568;51.026;5.468;2023-03-05T02:56:01;101212.56;;;4.68
53667;BMP280;39568;51.026;5.468;2023-03-05T02:58:27;101216.03;;;4.65
53667;BMP280;39568;51.026;5.468;2023-03-05T03:00:54;101215.72;;;4.63
53667;BMP280;39568;51.026;5.468;2023-03-05T03:03:21;101207.50;;;4.61
53667;BMP280;39568;51.026;5.468;2023-03-05T03:05:47;101207.72;;;4.54
53667;BMP280;39568;51.026;5.468;2023-03-05T03:08:14;101201.63;;;4.57
53667;BMP280;39568;51.026;5.468;2023-03-05T03:10:41;101207.63;;;4.58
53667;BMP280;39568;51.026;5.468;2023-03-05T03:13:09;101195.41;;;4.51
53667;BMP280;39568;51.026;5.468;2023-03-05T03:15:36;101193.63;;;4.48
53667;BMP280;39568;51.026;5.468;2023-03-05T03:18:04;101185.72;;;4.48
53667;BMP280;39568;51.026;5.468;2023-03-05T03:20:31;101179.41;;;4.45
53667;BMP280;39568;51.026;5.468;2023-03-05T03:22:59;101182.41;;;4.35
53667;BMP280;39568;51.026;5.468;2023-03-05T03:25:26;101180.06;;;4.37
53667;BMP280;39568;51.026;5.468;2023-03-05T03:27:53;101174.78;;;4.37
53667;BMP280;39568;51.026;5.468;2023-03-05T03:30:21;101174.38;;;4.38
53667;BMP280;39568;51.026;5.468;2023-03-05T03:32:49;101178.91;;;4.38
53667;BMP280;39568;51.026;5.468;2023-03-05T03:35:16;101166.03;;;4.40
53667;BMP280;39568;51.026;5.468;2023-03-05T03:37:43;101165.34;;;4.27
53667;BMP280;39568;51.026;5.468;2023-03-05T03:40:10;101164.91;;;4.28
53667;BMP280;39568;51.026;5.468;2023-03-05T03:42:37;101164.06;;;4.31
53667;BMP280;39568;51.026;5.468;2023-03-05T03:45:05;101159.34;;;4.26
53667;BMP280;39568;51.026;5.468;2023-03-05T03:47:33;101157.63;;;4.20
53667;BMP280;39568;51.026;5.468;2023-03-05T03:50:00;101158.47;;;4.17
53667;BMP280;39568;51.026;5.468;2023-03-05T03:52:26;101156.47;;;4.21
53667;BMP280;39568;51.026;5.468;2023-03-05T03:54:53;101149.44;;;4.18
53667;BMP280;39568;51.026;5.468;2023-03-05T03:57:26;101142.69;;;4.17
53667;BMP280;39568;51.026;5.468;2023-03-05T03:59:52;101138.25;;;4.26
53667;BMP280;39568;51.026;5.468;2023-03-05T04:02:19;101137.72;;;4.31
53667;BMP280;39568;51.026;5.468;2023-03-05T04:04:47;101130.66;;;4.28
53667;BMP280;39568;51.026;5.468;2023-03-05T04:07:14;101132.88;;;4.30
53667;BMP280;39568;51.026;5.468;2023-03-05T04:09:41;101128.75;;;4.29
53667;BMP280;39568;51.026;5.468;2023-03-05T04:12:08;101121.28;;;4.27
53667;BMP280;39568;51.026;5.468;2023-03-05T04:14:35;101122.97;;;4.34
53667;BMP280;39568;51.026;5.468;2023-03-05T04:17:02;101131.72;;;4.31
53667;BMP280;39568;51.026;5.468;2023-03-05T04:19:29;101116.56;;;4.35
53667;BMP280;39568;51.026;5.468;2023-03-05T04:21:57;101127.28;;;4.28
53667;BMP280;39568;51.026;5.468;2023-03-05T04:24:24;101113.34;;;4.40
53667;BMP280;39568;51.026;5.468;2023-03-05T04:26:51;101121.97;;;4.40
53667;BMP280;39568;51.026;5.468;2023-03-05T04:29:18;101116.81;;;4.37
53667;BMP280;39568;51.026;5.468;2023-03-05T04:31:45;101119.59;;;4.33
53667;BMP280;39568;51.026;5.468;2023-03-05T04:34:11;101116.97;;;4.33
53667;BMP280;39568;51.026;5.468;2023-03-05T04:36:38;101113.91;;;4.35
53667;BMP280;39568;51.026;5.468;2023-03-05T04:39:06;101113.03;;;4.38
53667;BMP280;39568;51.026;5.468;2023-03-05T04:41:33;101104.06;;;4.14
53667;BMP280;39568;51.026;5.468;2023-03-05T04:43:59;101103.88;;;3.95
53667;BMP280;39568;51.026;5.468;2023-03-05T04:46:26;101101.44;;;4.14
53667;BMP280;39568;51.026;5.468;2023-03-05T04:48:53;101101.31;;;4.05
53667;BMP280;39568;51.026;5.468;2023-03-05T04:51:20;101099.53;;;4.02
53667;BMP280;39568;51.026;5.468;2023-03-05T04:53:46;101096.75;;;4.18
53667;BMP280;39568;51.026;5.468;2023-03-05T04:56:15;101096.53;;;4.25
53667;BMP280;39568;51.026;5.468;2023-03-05T04:58:42;101098.63;;;4.30
53667;BMP280;39568;51.026;5.468;2023-03-05T05:01:08;101095.22;;;4.42
53667;BMP280;39568;51.026;5.468;2023-03-05T05:03:35;101089.94;;;4.42
53667;BMP280;39568;51.026;5.468;2023-03-05T05:06:03;101093.00;;;4.40
53667;BMP280;39568;51.026;5.468;2023-03-05T05:08:29;101091.53;;;4.39
53667;BMP280;39568;51.026;5.468;2023-03-05T05:10:57;101088.97;;;4.27
53667;BMP280;39568;51.026;5.468;2023-03-05T05:13:26;101080.63;;;4.16
53667;BMP280;39568;51.026;5.468;2023-03-05T05:15:53;101079.19;;;4.15
53667;BMP280;39568;51.026;5.468;2023-03-05T05:18:21;101082.88;;;4.05
53667;BMP280;39568;51.026;5.468;2023-03-05T05:20:48;101087.41;;;4.04
53667;BMP280;39568;51.026;5.468;2023-03-05T05:23:15;101086.69;;;4.04
53667;BMP280;39568;51.026;5.468;2023-03-05T05:25:42;101081.56;;;3.87
53667;BMP280;39568;51.026;5.468;2023-03-05T05:28:10;101072.84;;;3.65
53667;BMP280;39568;51.026;5.468;2023-03-05T05:30:38;101067.59;;;3.65
53667;BMP280;39568;51.026;5.468;2023-03-05T05:33:05;101072.69;;;4.07
53667;BMP280;39568;51.026;5.468;2023-03-05T05:35:32;101072.25;;;4.08
53667;BMP280;39568;51.026;5.468;2023-03-05T05:37:58;101069.41;;;4.03
53667;BMP280;39568;51.026;5.468;2023-03-05T05:40:25;101071.31;;;4.02
53667;BMP280;39568;51.026;5.468;2023-03-05T05:42:52;101068.91;;;3.95
53667;BMP280;39568;51.026;5.468;2023-03-05T05:45:18;101073.69;;;3.87
53667;BMP280;39568;51.026;5.468;2023-03-05T05:47:46;101055.31;;;3.96
53667;BMP280;39568;51.026;5.468;2023-03-05T05:50:13;101069.66;;;3.95
53667;BMP280;39568;51.026;5.468;2023-03-05T05:52:40;101068.16;;;3.94
53667;BMP280;39568;51.026;5.468;2023-03-05T05:55:08;101063.16;;;3.87
53667;BMP280;39568;51.026;5.468;2023-03-05T05:57:35;101056.28;;;3.90
53667;BMP280;39568;51.026;5.468;2023-03-05T06:00:04;101055.16;;;3.78
53667;BMP280;39568;51.026;5.468;2023-03-05T06:02:31;101053.16;;;3.82
53667;BMP280;39568;51.026;5.468;2023-03-05T06:04:59;101056.31;;;3.65
53667;BMP280;39568;51.026;5.468;2023-03-05T06:07:25;101050.00;;;3.62
53667;BMP280;39568;51.026;5.468;2023-03-05T06:09:52;101049.03;;;3.81
53667;BMP280;39568;51.026;5.468;2023-03-05T06:12:19;101053.16;;;3.82
53667;BMP280;39568;51.026;5.468;2023-03-05T06:14:45;101052.00;;;3.83
53667;BMP280;39568;51.026;5.468;2023-03-05T06:17:12;101048.88;;;3.63
53667;BMP280;39568;51.026;5.468;2023-03-05T06:19:39;101028.22;;;3.49
53667;BMP280;39568;51.026;5.468;2023-03-05T06:22:07;101035.09;;;3.46
53667;BMP280;39568;51.026;5.468;2023-03-05T06:24:33;101042.16;;;3.37
53667;BMP280;39568;51.026;5.468;2023-03-05T06:27:00;101039.88;;;3.73
53667;BMP280;39568;51.026;5.468;2023-03-05T06:29:27;101039.13;;;3.85
53667;BMP280;39568;51.026;5.468;2023-03-05T06:31:53;101046.09;;;3.79
53667;BMP280;39568;51.026;5.468;2023-03-05T06:34:20;101042.19;;;3.84
53667;BMP280;39568;51.026;5.468;2023-03-05T06:36:47;101042.28;;;3.80
53667;BMP280;39568;51.026;5.468;2023-03-05T06:39:15;101040.59;;;3.86
53667;BMP280;39568;51.026;5.468;2023-03-05T06:41:42;101032.59;;;3.77
53667;BMP280;39568;51.026;5.468;2023-03-05T06:44:09;101047.53;;;3.80
53667;BMP280;39568;51.026;5.468;2023-03-05T06:46:37;101043.25;;;3.74
53667;BMP280;39568;51.026;5.468;2023-03-05T06:49:04;101041.97;;;3.78
53667;BMP280;39568;51.026;5.468;2023-03-05T06:51:32;101035.75;;;3.72
53667;BMP280;39568;51.026;5.468;2023-03-05T06:54:01;101032.59;;;3.77
53667;BMP280;39568;51.026;5.468;2023-03-05T06:56:29;101033.97;;;3.82
53667;BMP280;39568;51.026;5.468;2023-03-05T06:58:56;101036.81;;;3.87
53667;BMP280;39568;51.026;5.468;2023-03-05T07:01:23;101034.09;;;3.91
53667;BMP280;39568;51.026;5.468;2023-03-05T07:03:51;101027.75;;;3.88
53667;BMP280;39568;51.026;5.468;2023-03-05T07:06:19;101026.78;;;3.95
53667;BMP280;39568;51.026;5.468;2023-03-05T07:08:46;101026.34;;;3.96
53667;BMP280;39568;51.026;5.468;2023-03-05T07:11:15;101029.31;;;3.98
53667;BMP280;39568;51.026;5.468;2023-03-05T07:13:44;101030.34;;;4.01
53667;BMP280;39568;51.026;5.468;2023-03-05T07:16:14;101024.66;;;4.03
53667;BMP280;39568;51.026;5.468;2023-03-05T07:18:41;101027.81;;;4.10
53667;BMP280;39568;51.026;5.468;2023-03-05T07:21:08;101029.44;;;4.17
53667;BMP280;39568;51.026;5.468;2023-03-05T07:23:37;101021.31;;;4.24
53667;BMP280;39568;51.026;5.468;2023-03-05T07:26:05;101021.53;;;4.17
53667;BMP280;39568;51.026;5.468;2023-03-05T07:28:33;101023.31;;;4.20
53667;BMP280;39568;51.026;5.468;2023-03-05T07:31:03;101018.47;;;4.31
53667;BMP280;39568;51.026;5.468;2023-03-05T07:33:30;101018.94;;;4.38
53667;BMP280;39568;51.026;5.468;2023-03-05T07:35:58;101019.97;;;4.41
53667;BMP280;39568;51.026;5.468;2023-03-05T07:38:25;101016.59;;;4.40
53667;BMP280;39568;51.026;5.468;2023-03-05T07:40:52;101024.03;;;4.33
53667;BMP280;39568;51.026;5.468;2023-03-05T07:43:19;101024.19;;;4.38
53667;BMP280;39568;51.026;5.468;2023-03-05T07:45:45;101020.78;;;4.29
53667;BMP280;39568;51.026;5.468;2023-03-05T07:48:15;101019.28;;;4.28
53667;BMP280;39568;51.026;5.468;2023-03-05T07:50:42;101013.09;;;4.22
53667;BMP280;39568;51.026;5.468;2023-03-05T07:53:08;101015.81;;;4.31
53667;BMP280;39568;51.026;5.468;2023-03-05T07:55:41;101013.06;;;4.34
53667;BMP280;39568;51.026;5.468;2023-03-05T07:58:08;101012.38;;;4.21
53667;BMP280;39568;51.026;5.468;2023-03-05T08:00:34;101010.66;;;4.27
53667;BMP280;39568;51.026;5.468;2023-03-05T08:03:01;101020.25;;;4.34
53667;BMP280;39568;51.026;5.468;2023-03-05T08:05:29;101012.13;;;4.28
53667;BMP280;39568;51.026;5.468;2023-03-05T08:07:56;101008.53;;;4.35
53667;BMP280;39568;51.026;5.468;2023-03-05T08:10:23;101010.44;;;4.34
53667;BMP280;39568;51.026;5.468;2023-03-05T08:12:49;101009.69;;;4.34
53667;BMP280;39568;51.026;5.468;2023-03-05T08:15:16;101005.91;;;4.35
53667;BMP280;39568;51.026;5.468;2023-03-05T08:17:43;101006.47;;;4.39
53667;BMP280;39568;51.026;5.468;2023-03-05T08:20:11;101005.59;;;4.33
53667;BMP280;39568;51.026;5.468;2023-03-05T08:22:39;101002.34;;;4.29
53667;BMP280;39568;51.026;5.468;2023-03-05T08:25:07;100998.84;;;4.32
53667;BMP280;39568;51.026;5.468;2023-03-05T08:27:37;100994.47;;;4.38
53667;BMP280;39568;51.026;5.468;2023-03-05T08:30:04;100995.78;;;4.33
53667;BMP280;39568;51.026;5.468;2023-03-05T08:32:31;100987.63;;;4.40
53667;BMP280;39568;51.026;5.468;2023-03-05T08:34:58;100997.84;;;4.38
53667;BMP280;39568;51.026;5.468;2023-03-05T08:37:27;100989.84;;;4.42
53667;BMP280;39568;51.026;5.468;2023-03-05T08:39:55;100996.34;;;4.50
53667;BMP280;39568;51.026;5.468;2023-03-05T08:42:22;100982.53;;;4.46
53667;BMP280;39568;51.026;5.468;2023-03-05T08:44:49;100976.34;;;4.40
53667;BMP280;39568;51.026;5.468;2023-03-05T08:47:16;100979.28;;;4.42
53667;BMP280;39568;51.026;5.468;2023-03-05T08:49:44;100984.84;;;4.35
53667;BMP280;39568;51.026;5.468;2023-03-05T08:52:11;100985.72;;;4.41
53667;BMP280;39568;51.026;5.468;2023-03-05T08:54:38;100984.50;;;4.33
53667;BMP280;39568;51.026;5.468;2023-03-05T08:57:06;100979.91;;;4.24
53667;BMP280;39568;51.026;5.468;2023-03-05T08:59:33;100975.72;;;4.14
53667;BMP280;39568;51.026;5.468;2023-03-05T09:02:00;100978.00;;;4.25
53667;BMP280;39568;51.026;5.468;2023-03-05T09:04:27;100971.50;;;4.38
53667;BMP280;39568;51.026;5.468;2023-03-05T09:06:54;100964.84;;;4.56
53667;BMP280;39568;51.026;5.468;2023-03-05T09:09:20;100962.75;;;4.72
53667;BMP280;39568;51.026;5.468;2023-03-05T09:11:47;100962.47;;;4.79
53667;BMP280;39568;51.026;5.468;2023-03-05T09:14:17;100952.31;;;4.99
53667;BMP280;39568;51.026;5.468;2023-03-05T09:16:44;100960.88;;;5.22
53667;BMP280;39568;51.026;5.468;2023-03-05T09:19:11;100960.69;;;5.25
53667;BMP280;39568;51.026;5.468;2023-03-05T09:21:39;100954.53;;;5.10
53667;BMP280;39568;51.026;5.468;2023-03-05T09:24:06;100952.34;;;5.18
53667;BMP280;39568;51.026;5.468;2023-03-05T09:26:33;100957.53;;;5.39
53667;BMP280;39568;51.026;5.468;2023-03-05T09:29:00;100951.25;;;5.64
53667;BMP280;39568;51.026;5.468;2023-03-05T09:31:28;100952.56;;;5.50
53667;BMP280;39568;51.026;5.468;2023-03-05T09:33:55;100939.34;;;5.32
53667;BMP280;39568;51.026;5.468;2023-03-05T09:36:24;100938.91;;;5.34
53667;BMP280;39568;51.026;5.468;2023-03-05T09:38:51;100938.91;;;5.34
53667;BMP280;39568;51.026;5.468;2023-03-05T09:41:27;100933.19;;;5.63
53667;BMP280;39568;51.026;5.468;2023-03-05T09:44:06;100926.91;;;5.69
53667;BMP280;39568;51.026;5.468;2023-03-05T09:46:44;100928.78;;;5.78
53667;BMP280;39568;51.026;5.468;2023-03-05T09:49:17;100927.91;;;5.81
53667;BMP280;39568;51.026;5.468;2023-03-05T09:51:51;100931.88;;;5.85
53667;BMP280;39568;51.026;5.468;2023-03-05T09:54:22;100922.88;;;6.01
53667;BMP280;39568;51.026;5.468;2023-03-05T09:56:53;100918.63;;;6.03
53667;BMP280;39568;51.026;5.468;2023-03-05T09:59:26;100914.63;;;6.26
53667;BMP280;39568;51.026;5.468;2023-03-05T10:01:58;100918.53;;;6.40
53667;BMP280;39568;51.026;5.468;2023-03-05T10:04:37;100914.63;;;6.59
53667;BMP280;39568;51.026;5.468;2023-03-05T10:07:12;100915.78;;;6.25
53667;BMP280;39568;51.026;5.468;2023-03-05T10:09:43;100912.13;;;6.23
53667;BMP280;39568;51.026;5.468;2023-03-05T10:12:15;100916.78;;;6.28
53667;BMP280;39568;51.026;5.468;2023-03-05T10:14:45;100914.53;;;5.93
53667;BMP280;39568;51.026;5.468;2023-03-05T10:17:45;100918.66;;;5.85
53667;BMP280;39568;51.026;5.468;2023-03-05T10:23:04;100912.16;;;6.04
53667;BMP280;39568;51.026;5.468;2023-03-05T10:25:49;100902.25;;;6.32
53667;BMP280;39568;51.026;5.468;2023-03-05T10:28:18;100898.28;;;6.69
53667;BMP280;39568;51.026;5.468;2023-03-05T10:31:01;100893.94;;;6.81
53667;BMP280;39568;51.026;5.468;2023-03-05T10:33:36;100890.97;;;6.64
53667;BMP280;39568;51.026;5.468;2023-03-05T10:36:34;100892.81;;;7.20
53667;BMP280;39568;51.026;5.468;2023-03-05T10:39:45;100881.78;;;6.75
53667;BMP280;39568;51.026;5.468;2023-03-05T10:42:24;100876.56;;;6.65
53667;BMP280;39568;51.026;5.468;2023-03-05T10:44:55;100874.94;;;6.35
53667;BMP280;39568;51.026;5.468;2023-03-05T10:47:25;100886.19;;;6.03
53667;BMP280;39568;51.026;5.468;2023-03-05T10:49:55;100881.06;;;5.99
53667;BMP280;39568;51.026;5.468;2023-03-05T10:52:27;100885.38;;;5.79
53667;BMP280;39568;51.026;5.468;2023-03-05T10:54:56;100877.78;;;5.63
53667;BMP280;39568;51.026;5.468;2023-03-05T10:57:24;100883.78;;;5.54
53667;BMP280;39568;51.026;5.468;2023-03-05T10:59:52;100887.59;;;5.53
53667;BMP280;39568;51.026;5.468;2023-03-05T11:02:21;100881.88;;;5.45
53667;BMP280;39568;51.026;5.468;2023-03-05T11:04:48;100877.47;;;5.24
53667;BMP280;39568;51.026;5.468;2023-03-05T11:07:35;100872.94;;;5.34
53667;BMP280;39568;51.026;5.468;2023-03-05T11:10:13;100869.09;;;5.71
53667;BMP280;39568;51.026;5.468;2023-03-05T11:12:40;100861.44;;;6.33
53667;BMP280;39568;51.026;5.468;2023-03-05T11:15:25;100859.03;;;6.68
53667;BMP280;39568;51.026;5.468;2023-03-05T11:18:19;100856.00;;;7.08
53667;BMP280;39568;51.026;5.468;2023-03-05T11:20:49;100853.13;;;7.50
53667;BMP280;39568;51.026;5.468;2023-03-05T11:23:18;100855.03;;;7.35
53667;BMP280;39568;51.026;5.468;2023-03-05T11:25:59;100844.63;;;7.75
53667;BMP280;39568;51.026;5.468;2023-03-05T11:28:29;100838.25;;;7.81
53667;BMP280;39568;51.026;5.468;2023-03-05T11:31:05;100828.31;;;7.97
53667;BMP280;39568;51.026;5.468;2023-03-05T11:33:34;100825.81;;;7.73
53667;BMP280;39568;51.026;5.468;2023-03-05T11:36:23;100824.53;;;7.54
53667;BMP280;39568;51.026;5.468;2023-03-05T11:38:54;100821.06;;;7.33
53667;BMP280;39568;51.026;5.468;2023-03-05T11:41:26;100814.69;;;7.25
53667;BMP280;39568;51.026;5.468;2023-03-05T11:43:54;100815.59;;;6.84
53667;BMP280;39568;51.026;5.468;2023-03-05T11:46:22;100813.78;;;6.51
53667;BMP280;39568;51.026;5.468;2023-03-05T11:48:49;100806.97;;;6.36
53667;BMP280;39568;51.026;5.468;2023-03-05T11:51:21;100802.91;;;6.26
53667;BMP280;39568;51.026;5.468;2023-03-05T11:53:49;100794.59;;;6.42
53667;BMP280;39568;51.026;5.468;2023-03-05T11:56:21;100790.44;;;6.50
53667;BMP280;39568;51.026;5.468;2023-03-05T11:58:52;100788.19;;;6.34
53667;BMP280;39568;51.026;5.468;2023-03-05T12:01:23;100787.16;;;6.31
53667;BMP280;39568;51.026;5.468;2023-03-05T12:03:51;100780.59;;;6.27
53667;BMP280;39568;51.026;5.468;2023-03-05T12:06:27;100776.44;;;6.11
53667;BMP280;39568;51.026;5.468;2023-03-05T12:08:56;100770.97;;;6.14
53667;BMP280;39568;51.026;5.468;2023-03-05T12:11:27;100764.16;;;5.99
53667;BMP280;39568;51.026;5.468;2023-03-05T12:13:56;100756.47;;;6.01
53667;BMP280;39568;51.026;5.468;2023-03-05T12:16:31;100762.50;;;6.01
53667;BMP280;39568;51.026;5.468;2023-03-05T12:19:10;100758.69;;;6.02
53667;BMP280;39568;51.026;5.468;2023-03-05T12:21:43;100756.09;;;5.93
53667;BMP280;39568;51.026;5.468;2023-03-05T12:24:34;100745.84;;;5.86
53667;BMP280;39568;51.026;5.468;2023-03-05T12:27:12;100751.69;;;5.90
53667;BMP280;39568;51.026;5.468;2023-03-05T12:29:45;100743.91;;;5.96
53667;BMP280;39568;51.026;5.468;2023-03-05T12:35:26;100730.78;;;6.10
53667;BMP280;39568;51.026;5.468;2023-03-05T12:37:59;100725.50;;;6.10
53667;BMP280;39568;51.026;5.468;2023-03-05T12:40:28;100724.97;;;5.97
53667;BMP280;39568;51.026;5.468;2023-03-05T12:42:58;100729.19;;;5.71
53667;BMP280;39568;51.026;5.468;2023-03-05T12:45:31;100719.06;;;5.10
53667;BMP280;39568;51.026;5.468;2023-03-05T12:48:39;100726.16;;;4.85
53667;BMP280;39568;51.026;5.468;2023-03-05T12:51:14;100720.28;;;4.81
53667;BMP280;39568;51.026;5.468;2023-03-05T12:53:53;100717.06;;;4.68
53667;BMP280;39568;51.026;5.468;2023-03-05T12:56:21;100701.81;;;4.72
53667;BMP280;39568;51.026;5.468;2023-03-05T12:58:56;100705.63;;;4.62
53667;BMP280;39568;51.026;5.468;2023-03-05T13:01:39;100705.50;;;4.66
53667;BMP280;39568;51.026;5.468;2023-03-05T13:04:14;100700.78;;;4.79
53667;BMP280;39568;51.026;5.468;2023-03-05T13:06:44;100695.97;;;4.77
53667;BMP280;39568;51.026;5.468;2023-03-05T13:09:17;100697.28;;;4.73
53667;BMP280;39568;51.026;5.468;2023-03-05T13:11:47;100685.69;;;4.79
53667;BMP280;39568;51.026;5.468;2023-03-05T13:14:44;100684.66;;;4.95
53667;BMP280;39568;51.026;5.468;2023-03-05T13:17:33;100680.13;;;5.04
53667;BMP280;39568;51.026;5.468;2023-03-05T13:20:23;100675.31;;;4.85
53667;BMP280;39568;51.026;5.468;2023-03-05T13:23:02;100662.41;;;4.87
53667;BMP280;39568;51.026;5.468;2023-03-05T13:25:28;100660.19;;;5.13
53667;BMP280;39568;51.026;5.468;2023-03-05T13:28:01;100663.78;;;5.33
53667;BMP280;39568;51.026;5.468;2023-03-05T13:30:29;100655.19;;;5.24
53667;BMP280;39568;51.026;5.468;2023-03-05T13:32:59;100655.16;;;5.33
53667;BMP280;39568;51.026;5.468;2023-03-05T13:35:27;100646.06;;;5.67
53667;BMP280;39568;51.026;5.468;2023-03-05T13:37:54;100637.03;;;5.82
53667;BMP280;39568;51.026;5.468;2023-03-05T13:40:23;100641.06;;;5.69
53667;BMP280;39568;51.026;5.468;2023-03-05T13:42:50;100635.22;;;5.65
53667;BMP280;39568;51.026;5.468;2023-03-05T13:45:27;100630.19;;;5.76
53667;BMP280;39568;51.026;5.468;2023-03-05T13:47:57;100624.78;;;5.94
53667;BMP280;39568;51.026;5.468;2023-03-05T13:50:27;100625.19;;;6.16
53667;BMP280;39568;51.026;5.468;2023-03-05T13:52:55;100622.25;;;5.99
53667;BMP280;39568;51.026;5.468;2023-03-05T13:55:22;100618.41;;;6.00
53667;BMP280;39568;51.026;5.468;2023-03-05T13:57:50;100611.34;;;6.06
53667;BMP280;39568;51.026;5.468;2023-03-05T14:00:30;100607.25;;;6.05
53667;BMP280;39568;51.026;5.468;2023-03-05T14:03:01;100606.63;;;6.10
53667;BMP280;39568;51.026;5.468;2023-03-05T14:05:33;100606.50;;;6.05
53667;BMP280;39568;51.026;5.468;2023-03-05T14:08:01;100604.34;;;5.80
53667;BMP280;39568;51.026;5.468;2023-03-05T14:10:30;100591.41;;;5.82
53667;BMP280;39568;51.026;5.468;2023-03-05T14:12:59;100594.00;;;5.67
53667;BMP280;39568;51.026;5.468;2023-03-05T14:15:28;100593.66;;;5.74
53667;BMP280;39568;51.026;5.468;2023-03-05T14:18:16;100580.25;;;5.63
53667;BMP280;39568;51.026;5.468;2023-03-05T14:21:01;100580.69;;;5.85
53667;BMP280;39568;51.026;5.468;2023-03-05T14:23:39;100580.13;;;5.81
53667;BMP280;39568;51.026;5.468;2023-03-05T14:28:54;100572.88;;;5.91
53667;BMP280;39568;51.026;5.468;2023-03-05T14:31:22;100561.88;;;5.69
53667;BMP280;39568;51.026;5.468;2023-03-05T14:33:51;100558.06;;;5.70